createdAt,value
2022-11-28T00:01:23.740Z,8.38
2022-11-28T00:03:50.285Z,6.97
2022-11-28T00:06:17.743Z,7.47
2022-11-28T00:08:44.583Z,7.18
2022-11-28T00:11:13.826Z,8.60
2022-11-28T00:13:40.542Z,8.40
2022-11-28T00:16:14.716Z,6.32
2022-11-28T00:18:42.853Z,7.45
2022-11-28T00:21:15.879Z,6.25
2022-11-28T00:23:44.206Z,8.20
2022-11-28T00:26:15.803Z,8.02
2022-11-28T00:28:42.471Z,8.32
2022-11-28T00:31:30.728Z,6.82
2022-11-28T00:33:58.915Z,8.30
2022-11-28T00:36:28.264Z,6.95
2022-11-28T00:38:54.959Z,8.32
2022-11-28T00:41:25.158Z,7.18
2022-11-28T00:43:53.627Z,8.75
2022-11-28T00:46:21.719Z,9.30
2022-11-28T00:48:49.049Z,8.15
2022-11-28T00:51:24.454Z,7.70
2022-11-28T00:53:53.130Z,8.10
2022-11-28T00:56:25.267Z,8.10
2022-11-28T00:58:52.309Z,9.48
2022-11-28T01:01:20.548Z,7.38
2022-11-28T01:03:49.116Z,8.60
2022-11-28T01:06:30.236Z,8.15
2022-11-28T01:08:59.294Z,7.72
2022-11-28T01:11:26.333Z,8.15
2022-11-28T01:13:58.104Z,7.10
2022-11-28T01:16:25.164Z,6.50
2022-11-28T01:18:52.126Z,8.00
2022-11-28T01:21:18.855Z,9.05
2022-11-28T01:23:45.622Z,7.72
2022-11-28T01:26:19.097Z,8.45
2022-11-28T01:28:46.014Z,7.03
2022-11-28T01:31:18.571Z,7.88
2022-11-28T01:33:45.297Z,8.88
2022-11-28T01:36:13.227Z,7.57
2022-11-28T01:38:40.301Z,7.88
2022-11-28T01:41:07.538Z,7.90
2022-11-28T01:43:34.753Z,7.78
2022-11-28T01:46:02.808Z,7.82
2022-11-28T01:48:32.919Z,7.47
2022-11-28T01:51:01.986Z,8.02
2022-11-28T01:53:30.935Z,8.80
2022-11-28T01:56:06.414Z,8.13
2022-11-28T01:58:36.230Z,7.28
2022-11-28T02:01:04.088Z,7.78
2022-11-28T02:03:41.806Z,7.75
2022-11-28T02:06:08.580Z,7.30
2022-11-28T02:08:36.292Z,7.68
2022-11-28T02:11:26.142Z,10.75
2022-11-28T02:14:14.446Z,8.00
2022-11-28T02:16:47.944Z,6.50
2022-11-28T02:19:29.267Z,6.75
2022-11-28T02:22:17.923Z,6.57
2022-11-28T02:24:56.024Z,6.97
2022-11-28T02:27:59.775Z,6.70
2022-11-28T02:31:18.503Z,7.80
2022-11-28T02:33:55.266Z,6.25
2022-11-28T02:36:35.952Z,5.70
2022-11-28T02:39:30.108Z,5.65
2022-11-28T02:42:19.808Z,5.97
2022-11-28T02:45:12.026Z,5.38
2022-11-28T02:47:49.435Z,5.43
2022-11-28T02:50:28.725Z,6.22
2022-11-28T02:53:03.807Z,5.22
2022-11-28T02:55:31.130Z,5.53
2022-11-28T02:57:57.636Z,5.43
2022-11-28T03:00:34.324Z,4.75
2022-11-28T03:03:25.534Z,4.30
2022-11-28T03:06:06.050Z,6.35
2022-11-28T03:08:57.607Z,4.70
2022-11-28T03:12:03.115Z,5.47
2022-11-28T03:15:14.309Z,6.07
2022-11-28T03:18:12.018Z,5.43
2022-11-28T03:20:49.665Z,6.43
2022-11-28T03:23:39.245Z,6.75
2022-11-28T03:26:12.814Z,7.13
2022-11-28T03:28:55.399Z,6.10
2022-11-28T03:31:34.536Z,7.93
2022-11-28T03:34:03.368Z,6.43
2022-11-28T03:36:40.840Z,6.82
2022-11-28T03:39:14.462Z,6.10
2022-11-28T03:41:57.192Z,8.02
2022-11-28T03:44:28.899Z,7.30
2022-11-28T03:46:58.849Z,8.75
2022-11-28T03:49:31.152Z,9.25
2022-11-28T03:52:06.449Z,9.07
2022-11-28T03:54:52.927Z,10.10
2022-11-28T03:57:44.213Z,9.77
2022-11-28T04:00:13.053Z,9.00
2022-11-28T04:02:57.090Z,9.38
2022-11-28T04:05:44.396Z,10.88
2022-11-28T04:08:22.493Z,12.13
2022-11-28T04:11:04.010Z,11.75
2022-11-28T04:13:37.187Z,10.15
2022-11-28T04:16:25.490Z,11.77
2022-11-28T04:19:17.908Z,10.82
2022-11-28T04:21:56.933Z,13.23
2022-11-28T04:24:31.840Z,12.02
2022-11-28T04:27:07.113Z,11.77
2022-11-28T04:29:43.974Z,11.23
2022-11-28T04:32:12.717Z,11.52
2022-11-28T04:34:45.140Z,12.00
2022-11-28T04:37:14.863Z,12.90
2022-11-28T04:39:44.640Z,11.80
2022-11-28T04:42:18.217Z,12.82
2022-11-28T04:45:03.027Z,14.35
2022-11-28T04:47:29.820Z,12.90
2022-11-28T04:49:56.481Z,14.73
2022-11-28T04:52:22.824Z,15.45
2022-11-28T04:55:31.265Z,13.95
2022-11-28T04:58:09.357Z,14.48
2022-11-28T05:00:37.606Z,14.85
2022-11-28T05:03:05.618Z,14.13
2022-11-28T05:05:41.472Z,13.35
2022-11-28T05:08:07.788Z,14.75
2022-11-28T05:10:37.208Z,17.48
2022-11-28T05:13:03.857Z,15.07
2022-11-28T05:15:33.350Z,14.43
2022-11-28T05:17:59.778Z,13.75
2022-11-28T05:20:26.784Z,17.83
2022-11-28T05:22:53.193Z,15.25
2022-11-28T05:25:19.896Z,13.80
2022-11-28T05:27:46.393Z,14.32
2022-11-28T05:30:15.986Z,14.88
2022-11-28T05:32:42.492Z,14.68
2022-11-28T05:35:09.240Z,13.88
2022-11-28T05:37:35.811Z,14.43
2022-11-28T05:40:03.800Z,11.77
2022-11-28T05:42:34.341Z,13.98
2022-11-28T05:45:01.285Z,14.00
2022-11-28T05:47:30.903Z,13.70
2022-11-28T05:49:58.905Z,13.50
2022-11-28T05:52:25.482Z,14.02
2022-11-28T05:54:51.892Z,14.70
2022-11-28T05:57:18.215Z,12.43
2022-11-28T05:59:44.842Z,12.95
2022-11-28T06:02:11.499Z,12.25
2022-11-28T06:04:38.123Z,12.88
2022-11-28T06:07:07.091Z,14.57
2022-11-28T06:09:33.542Z,15.57
2022-11-28T06:11:59.932Z,13.98
2022-11-28T06:14:26.367Z,14.05
2022-11-28T06:16:52.932Z,13.63
2022-11-28T06:19:19.487Z,12.90
2022-11-28T06:21:47.098Z,14.10
2022-11-28T06:24:13.485Z,14.38
2022-11-28T06:26:39.797Z,13.50
2022-11-28T06:29:06.206Z,13.73
2022-11-28T06:31:35.527Z,15.93
2022-11-28T06:34:04.034Z,13.95
2022-11-28T06:36:30.943Z,12.15
2022-11-28T06:38:57.558Z,14.55
2022-11-28T06:41:24.129Z,13.88
2022-11-28T06:43:50.768Z,14.90
2022-11-28T06:46:22.658Z,14.15
2022-11-28T06:48:51.708Z,12.82
2022-11-28T06:51:19.279Z,12.75
2022-11-28T06:53:45.854Z,12.82
2022-11-28T06:56:16.069Z,15.27
2022-11-28T06:58:43.950Z,11.82
2022-11-28T07:01:10.386Z,13.48
2022-11-28T07:03:37.720Z,13.95
2022-11-28T07:06:04.923Z,14.55
2022-11-28T07:08:32.394Z,14.13
2022-11-28T07:10:58.873Z,14.15
2022-11-28T07:13:25.582Z,13.45
2022-11-28T07:15:52.026Z,14.73
2022-11-28T07:18:21.535Z,14.07
2022-11-28T07:20:48.030Z,14.45
2022-11-28T07:23:14.430Z,12.88
2022-11-28T07:25:40.802Z,16.65
2022-11-28T07:28:07.362Z,17.65
2022-11-28T07:30:34.406Z,15.25
2022-11-28T07:33:00.997Z,16.48
2022-11-28T07:35:27.386Z,17.05
2022-11-28T07:37:54.786Z,15.25
2022-11-28T07:40:22.824Z,16.77
2022-11-28T07:42:49.347Z,17.70
2022-11-28T07:45:15.865Z,17.63
2022-11-28T07:47:42.230Z,15.18
2022-11-28T07:50:09.049Z,15.93
2022-11-28T07:52:35.550Z,18.75
2022-11-28T07:55:01.955Z,19.02
2022-11-28T07:57:28.519Z,16.80
2022-11-28T07:59:54.882Z,17.52
2022-11-28T08:02:21.475Z,17.50
2022-11-28T08:04:52.754Z,13.75
2022-11-28T08:07:22.110Z,18.77
2022-11-28T08:09:48.525Z,16.77
2022-11-28T08:12:14.924Z,16.90
2022-11-28T08:14:49.641Z,16.73
2022-11-28T08:17:16.539Z,19.52
2022-11-28T08:19:42.877Z,18.00
2022-11-28T08:22:09.316Z,16.05
2022-11-28T08:24:35.902Z,18.52
2022-11-28T08:27:05.383Z,18.98
2022-11-28T08:29:32.459Z,19.52
2022-11-28T08:31:58.968Z,21.73
2022-11-28T08:34:25.310Z,27.55
2022-11-28T08:36:51.766Z,25.60
2022-11-28T08:39:25.998Z,24.15
2022-11-28T08:41:59.600Z,23.15
2022-11-28T08:44:46.009Z,20.45
2022-11-28T08:47:21.290Z,22.55
2022-11-28T08:49:47.824Z,20.23
2022-11-28T08:52:14.470Z,19.80
2022-11-28T08:54:41.384Z,19.60
2022-11-28T08:57:08.090Z,21.48
2022-11-28T08:59:34.473Z,22.70
2022-11-28T09:02:04.067Z,19.60
2022-11-28T09:04:30.606Z,23.67
2022-11-28T09:06:57.032Z,25.95
2022-11-28T09:09:23.658Z,21.83
2022-11-28T09:11:50.312Z,21.35
2022-11-28T09:14:19.466Z,23.63
2022-11-28T09:16:45.965Z,22.40
2022-11-28T09:19:12.623Z,27.50
2022-11-28T09:21:39.830Z,23.40
2022-11-28T09:24:11.639Z,23.13
2022-11-28T09:26:38.033Z,20.73
2022-11-28T09:29:04.610Z,21.70
2022-11-28T09:31:31.254Z,22.38
2022-11-28T09:33:57.782Z,27.13
2022-11-28T09:36:24.846Z,22.05
2022-11-28T09:38:51.670Z,21.58
2022-11-28T09:41:41.557Z,23.42
2022-11-28T09:44:44.559Z,22.98
2022-11-28T09:47:18.184Z,24.25
2022-11-28T09:49:54.701Z,24.75
2022-11-28T09:52:26.464Z,24.00
2022-11-28T09:55:18.178Z,24.02
2022-11-28T09:57:52.262Z,24.48
2022-11-28T10:00:21.861Z,21.38
2022-11-28T10:02:57.239Z,21.38
2022-11-28T10:05:42.182Z,25.92
2022-11-28T10:08:43.942Z,25.73
2022-11-28T10:11:35.066Z,26.97
2022-11-28T10:14:46.308Z,25.30
2022-11-28T10:17:47.184Z,29.23
2022-11-28T10:20:17.162Z,27.63
2022-11-28T10:22:51.849Z,27.80
2022-11-28T10:25:24.377Z,24.35
2022-11-28T10:27:51.124Z,27.75
2022-11-28T10:30:26.537Z,27.88
2022-11-28T10:33:00.670Z,27.35
2022-11-28T10:35:35.496Z,26.33
2022-11-28T10:38:02.578Z,28.85
2022-11-28T10:40:50.649Z,26.05
2022-11-28T10:43:29.020Z,28.63
2022-11-28T10:46:20.407Z,28.50
2022-11-28T10:49:01.820Z,26.55
2022-11-28T10:51:43.453Z,29.73
2022-11-28T10:54:43.473Z,30.13
2022-11-28T10:57:27.648Z,30.17
2022-11-28T11:00:14.021Z,27.00
2022-11-28T11:02:45.542Z,27.30
2022-11-28T11:05:18.488Z,26.58
2022-11-28T11:07:57.826Z,27.90
2022-11-28T11:10:37.208Z,27.70
2022-11-28T11:13:15.879Z,27.70
2022-11-28T11:15:42.518Z,26.23
2022-11-28T11:18:27.317Z,27.00
2022-11-28T11:21:06.711Z,26.90
2022-11-28T11:23:38.131Z,23.98
2022-11-28T11:26:05.744Z,27.10
2022-11-28T11:28:32.197Z,27.20
2022-11-28T11:31:01.517Z,27.08
2022-11-28T11:33:34.607Z,29.33
2022-11-28T11:36:03.919Z,29.67
2022-11-28T11:38:37.746Z,29.40
2022-11-28T11:41:28.905Z,28.90
2022-11-28T11:43:56.697Z,26.02
2022-11-28T11:46:23.508Z,26.95
2022-11-28T11:48:53.607Z,27.92
2022-11-28T11:51:32.757Z,27.98
2022-11-28T11:54:16.489Z,26.33
2022-11-28T11:56:45.987Z,25.30
2022-11-28T11:59:18.124Z,29.02
2022-11-28T12:04:47.265Z,25.45
2022-11-28T12:07:27.723Z,30.52
2022-11-28T12:10:01.751Z,28.17
2022-11-28T12:12:38.036Z,27.52
2022-11-28T12:15:30.026Z,25.52
2022-11-28T12:18:09.448Z,29.25
2022-11-28T12:20:44.377Z,25.88
2022-11-28T12:23:27.052Z,23.33
2022-11-28T12:26:19.512Z,25.45
2022-11-28T12:31:42.924Z,26.10
2022-11-28T12:34:26.545Z,25.13
2022-11-28T12:38:03.126Z,24.27
2022-11-28T12:40:51.692Z,25.05
2022-11-28T12:44:00.986Z,25.60
2022-11-28T12:46:33.530Z,21.25
2022-11-28T12:49:12.091Z,24.35
2022-11-28T12:51:56.714Z,27.92
2022-11-28T12:54:41.178Z,25.48
2022-11-28T12:57:40.010Z,23.50
2022-11-28T13:00:22.032Z,22.92
2022-11-28T13:03:09.990Z,22.55
2022-11-28T13:05:53.916Z,27.35
2022-11-28T13:08:27.293Z,25.33
2022-11-28T13:11:00.519Z,25.83
2022-11-28T13:13:31.779Z,24.85
2022-11-28T13:16:26.376Z,27.50
2022-11-28T13:19:23.449Z,24.70
2022-11-28T13:22:14.751Z,23.73
2022-11-28T13:25:03.305Z,26.13
2022-11-28T13:27:52.843Z,22.75
2022-11-28T13:30:25.839Z,26.40
2022-11-28T13:33:14.556Z,24.20
2022-11-28T13:35:43.945Z,23.25
2022-11-28T13:38:44.163Z,25.02
2022-11-28T13:41:28.456Z,21.73
2022-11-28T13:44:31.567Z,23.48
2022-11-28T13:47:13.540Z,21.40
2022-11-28T13:49:40.101Z,21.00
2022-11-28T13:52:18.799Z,21.50
2022-11-28T13:54:53.141Z,21.05
2022-11-28T13:57:22.809Z,23.02
2022-11-28T13:59:54.314Z,22.20
2022-11-28T14:02:55.451Z,22.08
2022-11-28T14:05:30.522Z,25.95
2022-11-28T14:07:57.933Z,23.10
2022-11-28T14:10:28.612Z,22.90
2022-11-28T14:13:26.597Z,24.20
2022-11-28T14:16:21.311Z,23.27
2022-11-28T14:19:01.274Z,21.67
2022-11-28T14:22:09.397Z,22.92
2022-11-28T14:24:38.546Z,25.13
2022-11-28T14:27:05.875Z,23.75
2022-11-28T14:29:43.103Z,24.77
2022-11-28T14:32:31.391Z,24.65
2022-11-28T14:34:58.336Z,23.63
2022-11-28T14:37:52.937Z,23.65
2022-11-28T14:40:58.746Z,24.33
2022-11-28T14:43:26.585Z,22.30
2022-11-28T14:46:13.098Z,23.13
2022-11-28T14:48:42.047Z,26.50
2022-11-28T14:51:09.114Z,22.83
2022-11-28T14:53:36.003Z,24.38
2022-11-28T14:56:25.717Z,24.80
2022-11-28T14:58:57.066Z,23.30
2022-11-28T15:01:55.466Z,25.92
2022-11-28T15:04:47.876Z,24.98
2022-11-28T15:07:42.274Z,27.00
2022-11-28T15:10:38.609Z,24.73
2022-11-28T15:13:38.828Z,27.75
2022-11-28T15:16:10.131Z,25.23
2022-11-28T15:18:39.285Z,23.65
2022-11-28T15:21:11.483Z,24.90
2022-11-28T15:26:07.569Z,25.73
2022-11-28T15:28:35.611Z,25.30
2022-11-28T15:31:05.572Z,27.17
2022-11-28T15:33:32.942Z,26.33
2022-11-28T15:36:13.072Z,25.17
2022-11-28T15:38:42.893Z,25.17
2022-11-28T15:41:09.961Z,27.38
2022-11-28T15:43:38.298Z,27.02
2022-11-28T15:46:05.827Z,24.50
2022-11-28T15:48:39.400Z,26.13
2022-11-28T15:51:07.471Z,25.85
2022-11-28T15:53:40.093Z,28.10
2022-11-28T15:56:09.855Z,26.80
2022-11-28T15:58:37.835Z,24.80
2022-11-28T16:01:18.256Z,24.85
2022-11-28T16:03:56.486Z,26.08
2022-11-28T16:06:26.841Z,21.05
2022-11-28T16:08:56.792Z,24.42
2022-11-28T16:11:26.712Z,23.85
2022-11-28T16:13:56.307Z,24.67
2022-11-28T16:16:27.623Z,23.30
2022-11-28T16:18:59.168Z,24.75
2022-11-28T16:21:29.896Z,27.27
2022-11-28T16:23:57.568Z,25.58
2022-11-28T16:26:32.767Z,25.10
2022-11-28T16:29:17.297Z,25.52
2022-11-28T16:31:44.799Z,25.05
2022-11-28T16:34:15.079Z,25.75
2022-11-28T16:36:45.698Z,24.88
2022-11-28T16:39:12.197Z,26.00
2022-11-28T16:42:30.825Z,26.27
2022-11-28T16:45:05.948Z,26.20
2022-11-28T16:47:33.070Z,25.05
2022-11-28T16:50:23.092Z,24.77
2022-11-28T16:52:54.670Z,26.13
2022-11-28T16:55:27.234Z,28.65
2022-11-28T16:57:59.788Z,27.42
2022-11-28T17:00:27.202Z,27.20
2022-11-28T17:02:53.718Z,30.08
2022-11-28T17:05:20.450Z,28.58
2022-11-28T17:07:46.896Z,27.13
2022-11-28T17:10:13.924Z,30.58
2022-11-28T17:12:40.807Z,29.13
2022-11-28T17:15:11.305Z,29.35
2022-11-28T17:17:37.689Z,31.17
2022-11-28T17:20:04.458Z,29.05
2022-11-28T17:22:41.083Z,26.45
2022-11-28T17:25:17.469Z,29.80
2022-11-28T17:27:44.020Z,25.40
2022-11-28T17:30:14.862Z,27.20
2022-11-28T17:32:41.235Z,27.60
2022-11-28T17:35:18.728Z,28.58
2022-11-28T17:37:45.195Z,29.10
2022-11-28T17:40:30.282Z,30.02
2022-11-28T17:42:56.850Z,29.25
2022-11-28T17:45:24.523Z,31.23
2022-11-28T17:47:51.202Z,29.10
2022-11-28T17:50:17.702Z,28.67
2022-11-28T17:52:44.709Z,29.50
2022-11-28T17:55:11.502Z,31.35
2022-11-28T17:57:37.955Z,31.05
2022-11-28T18:00:06.673Z,31.35
2022-11-28T18:02:33.095Z,29.23
2022-11-28T18:04:59.722Z,28.92
2022-11-28T18:07:26.077Z,29.17
2022-11-28T18:09:52.466Z,30.30
2022-11-28T18:12:18.833Z,29.48
2022-11-28T18:14:45.229Z,29.45
2022-11-28T18:17:12.006Z,29.58
2022-11-28T18:19:38.873Z,31.65
2022-11-28T18:22:06.366Z,30.02
2022-11-28T18:24:33.446Z,31.52
2022-11-28T18:27:00.130Z,34.08
2022-11-28T18:29:26.593Z,30.40
2022-11-28T18:31:53.124Z,31.88
2022-11-28T18:34:19.574Z,29.52
2022-11-28T18:36:46.059Z,28.75
2022-11-28T18:39:16.023Z,28.13
2022-11-28T18:41:42.780Z,26.45
2022-11-28T18:44:11.191Z,27.48
2022-11-28T18:46:39.314Z,25.42
2022-11-28T18:49:05.812Z,28.77
2022-11-28T18:51:34.150Z,26.08
2022-11-28T18:54:03.697Z,28.35
2022-11-28T18:56:30.237Z,27.33
2022-11-28T18:58:57.446Z,29.60
2022-11-28T19:01:30.695Z,29.40
2022-11-28T19:04:16.801Z,29.60
2022-11-28T19:06:45.354Z,26.00
2022-11-28T19:09:14.592Z,29.33
2022-11-28T19:11:41.839Z,27.70
2022-11-28T19:14:09.949Z,28.73
2022-11-28T19:16:37.571Z,24.65
2022-11-28T19:19:06.025Z,26.40
2022-11-28T19:21:34.769Z,29.33
2022-11-28T19:24:01.767Z,26.52
2022-11-28T19:26:33.971Z,27.58
2022-11-28T19:29:01.435Z,28.00
2022-11-28T19:31:30.785Z,30.60
2022-11-28T19:34:01.626Z,27.65
2022-11-28T19:36:30.131Z,28.20
2022-11-28T19:38:56.576Z,28.23
2022-11-28T19:41:23.022Z,22.05
2022-11-28T19:43:50.360Z,22.67
2022-11-28T19:46:17.395Z,22.65
2022-11-28T19:48:47.119Z,20.98
2022-11-28T19:51:13.903Z,22.50
2022-11-28T19:53:42.344Z,20.52
2022-11-28T19:56:34.904Z,21.42
2022-11-28T20:01:28.129Z,20.13
2022-11-28T20:03:54.631Z,20.50
2022-11-28T20:06:25.075Z,22.70
2022-11-28T20:08:54.017Z,24.85
2022-11-28T20:11:27.273Z,17.35
2022-11-28T20:13:58.366Z,19.92
2022-11-28T20:16:25.451Z,19.98
2022-11-28T20:18:51.981Z,18.42
2022-11-28T20:21:19.286Z,19.85
2022-11-28T20:23:48.499Z,20.67
2022-11-28T20:26:17.692Z,18.50
2022-11-28T20:28:44.981Z,19.63
2022-11-28T20:31:20.295Z,17.45
2022-11-28T20:33:48.318Z,17.35
2022-11-28T20:36:17.342Z,19.80
2022-11-28T20:38:44.136Z,18.65
2022-11-28T20:41:16.348Z,20.00
2022-11-28T20:46:11.169Z,22.45
2022-11-28T20:48:38.342Z,20.35
2022-11-28T20:51:14.117Z,21.58
2022-11-28T20:53:41.425Z,21.60
2022-11-28T20:56:31.979Z,22.58
2022-11-28T20:59:00.750Z,22.23
2022-11-28T21:01:30.328Z,21.67
2022-11-28T21:03:57.322Z,23.75
2022-11-28T21:06:23.763Z,24.92
2022-11-28T21:08:50.324Z,26.25
2022-11-28T21:11:43.413Z,24.05
2022-11-28T21:14:06.382Z,27.63
2022-11-28T21:16:33.814Z,29.92
2022-11-28T21:19:07.498Z,24.27
2022-11-28T21:21:37.207Z,26.20
2022-11-28T21:24:10.419Z,30.10
2022-11-28T21:26:41.425Z,27.92
2022-11-28T21:29:11.618Z,27.48
2022-11-28T21:31:42.683Z,30.58
2022-11-28T21:34:16.788Z,28.10
2022-11-28T21:36:44.026Z,29.02
2022-11-28T21:39:16.187Z,31.38
2022-11-28T21:44:12.364Z,31.08
2022-11-28T21:46:38.929Z,28.00
2022-11-28T21:49:05.675Z,27.73
2022-11-28T21:51:32.131Z,29.17
2022-11-28T21:53:58.606Z,29.25
2022-11-28T21:56:25.257Z,30.42
2022-11-28T21:58:51.823Z,32.38
2022-11-28T22:01:18.677Z,31.73
2022-11-28T22:03:45.252Z,29.33
2022-11-28T22:06:18.212Z,29.83
2022-11-28T22:08:45.141Z,32.42
2022-11-28T22:11:13.290Z,33.90
2022-11-28T22:13:47.474Z,33.25
2022-11-28T22:16:19.704Z,30.00
2022-11-28T22:18:47.105Z,31.45
2022-11-28T22:21:50.184Z,32.00
2022-11-28T22:24:02.603Z,30.85
2022-11-28T22:26:29.037Z,33.97
2022-11-28T22:28:55.525Z,35.10
2022-11-28T22:31:22.551Z,31.85
2022-11-28T22:33:50.559Z,33.72
2022-11-28T22:36:19.426Z,33.28
2022-11-28T22:38:47.273Z,31.67
2022-11-28T22:41:16.090Z,36.38
2022-11-28T22:43:42.565Z,39.25
2022-11-28T22:46:11.070Z,36.20
2022-11-28T22:48:38.816Z,34.22
2022-11-28T22:51:18.607Z,36.95
2022-11-28T22:53:46.355Z,34.97
2022-11-28T22:56:15.527Z,37.15
2022-11-28T22:58:44.318Z,35.55
2022-11-28T23:01:13.604Z,37.40
2022-11-28T23:03:40.028Z,32.83
2022-11-28T23:06:12.749Z,37.85
2022-11-28T23:08:39.359Z,37.97
2022-11-28T23:11:18.603Z,35.88
2022-11-28T23:13:47.846Z,34.63
2022-11-28T23:16:35.702Z,33.80
2022-11-28T23:19:05.810Z,36.33
2022-11-28T23:21:35.506Z,36.10
2022-11-28T23:24:02.108Z,37.33
2022-11-28T23:26:30.670Z,35.25
2022-11-28T23:28:59.808Z,40.78
2022-11-28T23:31:29.473Z,37.88
2022-11-28T23:33:57.490Z,35.28
2022-11-28T23:36:30.303Z,31.98
2022-11-28T23:39:05.392Z,34.38
2022-11-28T23:41:31.957Z,31.88
2022-11-28T23:44:00.558Z,34.00
2022-11-28T23:46:28.598Z,34.05
2022-11-28T23:48:55.796Z,34.30
2022-11-28T23:51:26.318Z,34.58
2022-11-28T23:53:53.842Z,30.13
2022-11-28T23:56:25.555Z,31.23
2022-11-28T23:58:52.803Z,32.95
